CST,Max TemperatureF,Mean TemperatureF,Min TemperatureF,Max Dew PointF,MeanDew PointF,Min DewpointF,Max Humidity, Mean Humidity, Min Humidity, Max Sea Level PressureIn, Mean Sea Level PressureIn, Min Sea Level PressureIn, Max VisibilityMiles, Mean VisibilityMiles, Min VisibilityMiles, Max Wind SpeedMPH, Mean Wind SpeedMPH, Max Gust SpeedMPH,PrecipitationIn, CloudCover, Events, WindDirDegrees
2013-11-1,86,79,71,81,74,32,100,85,70,29.97,29.86,29.81,10,7,0,20,6,28,0.05,4,Fog,100
2013-11-2,78,68,58,73,57,47,100,69,38,30.21,30.12,29.96,10,10,10,22,10,30,0.15,3,Rain,358
2013-11-3,79,65,51,61,54,50,93,65,37,30.19,30.09,30.00,10,10,10,17,4,21,0.00,0,,90
2013-11-4,84,71,58,72,63,32,100,74,47,30.02,29.97,29.91,10,10,10,17,5,24,0.00,1,,133
2013-11-5,86,77,68,77,73,69,100,83,65,29.98,29.93,29.89,10,10,10,23,9,28,T,3,Rain,140
2013-11-6,86,79,72,77,74,70,100,81,61,30.14,30.02,29.94,10,10,5,17,6,24,0.11,7,Rain-Thunderstorm,94
2013-11-7,73,65,56,73,49,38,100,70,40,30.35,30.28,30.15,10,10,10,21,13,28,0.01,5,Rain,334
2013-11-8,78,67,55,61,52,41,93,72,50,30.30,30.21,30.13,10,10,10,15,8,18,0.00,1,,339
2013-11-9,80,69,58,65,61,58,100,76,52,30.15,30.11,30.08,10,10,10,12,3,13,0.00,3,,56
2013-11-10,85,74,62,71,67,62,100,78,55,30.21,30.16,30.12,10,10,9,9,5,14,0.01,4,,29
2013-11-11,83,76,68,72,69,65,100,78,55,30.19,30.14,30.09,10,10,10,16,6,20,0.00,3,,21
2013-11-12,77,70,62,70,62,55,100,80,60,30.44,30.28,30.14,10,10,10,25,13,33,T,5,,2
2013-11-13,63,57,51,55,45,35,80,66,51,30.53,30.45,30.36,10,10,10,24,14,36,0.00,5,,342
2013-11-14,73,62,51,62,50,37,84,69,53,30.35,30.16,30.04,10,10,10,13,6,16,0.00,2,,345
2013-11-15,81,68,55,69,61,53,100,76,51,30.03,29.96,29.89,10,10,10,14,5,16,0.00,0,,127
2013-11-16,85,77,68,78,75,68,100,85,70,29.92,29.85,29.78,10,10,10,22,10,26,T,6,,156
2013-11-17,87,80,73,76,74,71,100,81,61,29.92,29.86,29.79,10,10,8,24,12,30,0.00,2,,169
2013-11-18,86,80,73,77,75,71,100,81,61,30.01,29.96,29.91,10,8,0,14,5,17,T,5,Fog,136
2013-11-19,85,79,72,76,74,72,100,85,69,30.00,29.94,29.90,10,9,6,17,9,23,T,6,Rain,12
2013-11-20,88,80,71,76,72,68,100,79,57,29.94,29.90,29.84,10,10,9,18,7,22,0.00,4,,156
2013-11-21,88,81,74,79,76,70,100,80,59,30.02,29.96,29.91,10,10,10,15,13,18,0.00,4,,146
2013-11-22,88,68,47,79,72,32,100,82,63,30.30,30.11,29.99,10,10,3,25,11,37,1.26,7,Rain-Thunderstorm,63
2013-11-23,50,47,44,43,42,32,89,82,74,30.39,30.31,30.25,10,10,9,22,16,31,0.02,8,Rain,330
2013-11-24,51,49,46,45,43,42,86,83,80,30.36,30.30,30.21,10,10,10,22,16,31,T,8,,321
2013-11-25,47,45,43,45,42,32,93,90,86,30.19,30.09,30.01,10,10,7,23,14,28,0.20,8,Rain,326
2013-11-26,59,52,44,42,38,32,92,70,47,30.37,30.21,30.12,10,10,9,30,14,38,0.10,4,Rain,324
2013-11-27,59,49,39,38,35,32,79,59,39,30.46,30.40,30.35,10,10,10,16,7,24,0.00,0,,339
2013-11-28,69,53,36,52,42,33,92,63,34,30.41,30.36,30.30,10,10,9,10,4,14,0.00,0,Snow,347
2013-11-29,76,63,50,58,53,47,93,70,46,30.41,30.35,30.31,10,10,10,16,5,20,0.00,3,,24
2013-11-30,74,65,55,65,59,54,93,79,64,30.32,30.26,30.21,10,10,10,12,3,15,0.02,7,Rain,110